Time;durP1;ratioP1;P1;durP2;ratioP2;P2;SDS_P1;SDS_P2;PMS_P1;PMS_P2;Temp;Humidity;BMP_temperature;BMP_pressure;BME280_temperature;BME280_humidity;BME280_pressure;Samples;Min_cycle;Max_cycle;Signal;HPM_P1;HPM_P2
2023/01/27 00:00:06;;;;;;;8.77;5.20;;;4.40;99.90;;;;;;5120785;27;20915;-80
2023/01/27 00:02:31;;;;;;;7.85;4.97;;;4.40;99.90;;;;;;5119885;27;20453;-79
2023/01/27 00:04:57;;;;;;;7.55;4.50;;;4.40;99.90;;;;;;5097694;27;20405;-79
2023/01/27 00:07:23;;;;;;;7.00;4.10;;;4.40;99.90;;;;;;5114663;27;20410;-80
2023/01/27 00:09:49;;;;;;;8.30;3.97;;;4.40;99.90;;;;;;5119261;27;20395;-79
2023/01/27 00:15:06;;;;;;;7.13;3.58;;;4.40;99.90;;;;;;5102243;27;20491;-79
2023/01/27 00:17:32;;;;;;;7.38;3.58;;;4.40;99.90;;;;;;5125273;27;20405;-80
2023/01/27 00:19:58;;;;;;;5.55;3.38;;;4.40;99.90;;;;;;5129741;27;20774;-79
2023/01/27 00:25:15;;;;;;;6.43;3.25;;;4.40;99.90;;;;;;5096672;27;20865;-79
2023/01/27 00:27:41;;;;;;;8.07;3.60;;;4.40;99.90;;;;;;5110526;27;20407;-80
2023/01/27 00:30:08;;;;;;;6.75;3.20;;;4.50;99.90;;;;;;5121927;27;20401;-79
2023/01/27 00:35:18;;;;;;;5.53;2.43;;;4.50;99.90;;;;;;5132889;27;20403;-79
2023/01/27 00:37:45;;;;;;;5.50;2.80;;;4.50;99.90;;;;;;5128391;27;20449;-79
2023/01/27 00:40:13;;;;;;;6.30;2.90;;;4.50;99.90;;;;;;5106539;27;20424;-80
2023/01/27 00:42:38;;;;;;;5.72;3.53;;;4.50;99.90;;;;;;5110590;27;20431;-80
2023/01/27 00:47:50;;;;;;;5.82;3.25;;;4.60;99.90;;;;;;5126340;27;20462;-80
2023/01/27 00:50:16;;;;;;;6.55;3.40;;;4.50;99.90;;;;;;5119754;27;20407;-80
2023/01/27 00:52:43;;;;;;;6.03;3.65;;;4.50;99.90;;;;;;5102954;27;20416;-80
2023/01/27 00:55:09;;;;;;;6.40;3.67;;;4.60;99.90;;;;;;5113188;27;20472;-77
2023/01/27 00:57:36;;;;;;;8.10;3.70;;;4.60;99.90;;;;;;5116064;27;20411;-77
2023/01/27 01:00:03;;;;;;;7.75;3.95;;;4.60;99.90;;;;;;5102556;27;20903;-79
2023/01/27 01:02:29;;;;;;;6.45;3.45;;;4.60;99.90;;;;;;5119621;27;20557;-79
2023/01/27 01:04:55;;;;;;;8.73;3.65;;;4.60;99.90;;;;;;5113719;27;20429;-80
2023/01/27 01:07:20;;;;;;;6.90;3.22;;;4.50;99.90;;;;;;5124889;27;20777;-79
2023/01/27 01:09:46;;;;;;;6.33;3.03;;;4.50;99.90;;;;;;5110312;27;20941;-80
2023/01/27 01:12:11;;;;;;;5.22;2.78;;;4.50;99.90;;;;;;5121762;27;20404;-80
2023/01/27 01:14:37;;;;;;;6.77;2.70;;;4.50;99.90;;;;;;5125147;27;20913;-79
2023/01/27 01:17:03;;;;;;;6.13;2.58;;;4.50;99.90;;;;;;5126979;27;20411;-80
2023/01/27 01:19:30;;;;;;;6.95;2.85;;;4.60;99.90;;;;;;5114725;27;20424;-80
2023/01/27 01:21:55;;;;;;;4.37;2.10;;;4.60;99.90;;;;;;5127086;27;20433;-80
2023/01/27 01:24:21;;;;;;;3.33;1.40;;;4.50;99.90;;;;;;5093127;27;20966;-80
2023/01/27 01:26:47;;;;;;;2.95;1.63;;;4.50;99.90;;;;;;5120701;27;20401;-80
2023/01/27 01:29:12;;;;;;;5.10;1.40;;;4.60;99.90;;;;;;5097599;27;20405;-80
2023/01/27 01:31:38;;;;;;;3.87;1.40;;;4.60;99.90;;;;;;5108374;27;20397;-79
2023/01/27 01:34:04;;;;;;;4.63;1.27;;;4.60;99.90;;;;;;5109677;27;20403;-80
2023/01/27 01:36:29;;;;;;;4.07;1.33;;;4.60;99.90;;;;;;5109956;27;20483;-80
2023/01/27 01:38:55;;;;;;;4.57;1.60;;;4.60;99.90;;;;;;5119890;27;20935;-77
2023/01/27 01:41:22;;;;;;;4.50;1.08;;;4.60;99.90;;;;;;5119455;27;20953;-77
2023/01/27 01:43:49;;;;;;;3.50;1.30;;;4.60;99.90;;;;;;5096506;27;20484;-77
2023/01/27 01:46:16;;;;;;;3.40;1.10;;;4.60;99.90;;;;;;5114343;27;20414;-77
2023/01/27 01:48:54;;;;;;;5.70;1.20;;;4.60;99.90;;;;;;5114566;27;20415;-77
2023/01/27 01:51:42;;;;;;;4.25;0.80;;;4.60;99.90;;;;;;5106285;28;20780;-77
2023/01/27 01:54:33;;;;;;;2.50;0.80;;;4.60;99.90;;;;;;5111113;27;20492;-77
2023/01/27 01:56:58;;;;;;;2.40;1.10;;;4.60;99.90;;;;;;5098336;27;20409;-77
2023/01/27 01:59:47;;;;;;;2.20;0.80;;;4.60;99.90;;;;;;5092593;28;20489;-78
2023/01/27 02:02:17;;;;;;;3.55;0.70;;;4.60;99.90;;;;;;5104002;28;20595;-79
2023/01/27 02:04:55;;;;;;;3.58;0.80;;;4.60;99.90;;;;;;5110659;27;20410;-78
2023/01/27 02:07:29;;;;;;;3.73;0.80;;;4.60;99.90;;;;;;5111741;28;20414;-78
2023/01/27 02:09:55;;;;;;;4.65;1.10;;;4.60;99.90;;;;;;5112065;27;20504;-78
2023/01/27 02:12:21;;;;;;;2.53;0.95;;;4.60;99.90;;;;;;5118916;27;20487;-78
2023/01/27 02:14:47;;;;;;;2.67;0.80;;;4.60;99.90;;;;;;5123085;27;20431;-79
2023/01/27 02:17:13;;;;;;;3.88;0.70;;;4.60;99.90;;;;;;5122351;27;20428;-78
2023/01/27 02:19:51;;;;;;;3.30;0.75;;;4.60;99.90;;;;;;5101512;27;20402;-78
2023/01/27 02:22:27;;;;;;;2.95;0.80;;;4.60;99.90;;;;;;5132184;27;20435;-78
2023/01/27 02:24:58;;;;;;;3.30;0.80;;;4.60;99.90;;;;;;5096357;27;20477;-78
2023/01/27 02:27:24;;;;;;;3.20;0.95;;;4.60;99.90;;;;;;5114304;27;21040;-79
2023/01/27 02:29:49;;;;;;;2.15;0.85;;;4.60;99.90;;;;;;5124819;27;20418;-78
2023/01/27 02:32:23;;;;;;;3.90;1.00;;;4.60;99.90;;;;;;5124707;27;20756;-79
2023/01/27 02:34:49;;;;;;;4.15;1.13;;;4.60;99.90;;;;;;5124332;27;20407;-78
2023/01/27 02:37:15;;;;;;;2.35;1.00;;;4.60;99.90;;;;;;5114388;27;20404;-78
2023/01/27 02:39:43;;;;;;;3.22;0.88;;;4.60;99.90;;;;;;5126438;27;20399;-79
2023/01/27 02:42:13;;;;;;;2.92;0.70;;;4.50;99.90;;;;;;5113702;27;20434;-78
2023/01/27 02:44:38;;;;;;;3.05;0.77;;;4.60;99.90;;;;;;5114365;27;20844;-78
2023/01/27 02:47:04;;;;;;;3.40;0.97;;;4.50;99.90;;;;;;5125867;27;20509;-79
2023/01/27 02:49:30;;;;;;;3.50;0.57;;;4.50;99.90;;;;;;5113524;27;20402;-79
2023/01/27 02:51:56;;;;;;;3.40;0.85;;;4.50;99.90;;;;;;5126875;27;20407;-78
2023/01/27 02:54:24;;;;;;;2.15;0.57;;;4.50;99.90;;;;;;5132495;27;20957;-79
2023/01/27 02:56:50;;;;;;;4.30;0.75;;;4.50;99.90;;;;;;5128818;27;20407;-78
2023/01/27 02:59:16;;;;;;;2.50;0.60;;;4.50;99.90;;;;;;5131358;27;20538;-78
2023/01/27 03:01:41;;;;;;;3.20;0.60;;;4.50;99.90;;;;;;5128459;27;20796;-79
2023/01/27 03:04:10;;;;;;;1.63;0.57;;;4.50;99.90;;;;;;5131392;27;20419;-78
2023/01/27 03:06:36;;;;;;;3.33;0.70;;;4.50;99.90;;;;;;5114922;27;20435;-78
2023/01/27 03:09:02;;;;;;;3.22;0.60;;;4.50;99.90;;;;;;5123144;27;20796;-79
2023/01/27 03:14:12;;;;;;;2.92;0.60;;;4.50;99.90;;;;;;5128460;27;20417;-78
2023/01/27 03:19:22;;;;;;;3.05;0.80;;;4.50;99.90;;;;;;5125250;27;20420;-79
2023/01/27 03:21:51;;;;;;;4.07;0.70;;;4.50;99.90;;;;;;5130178;27;20475;-78
2023/01/27 03:24:17;;;;;;;4.43;0.70;;;4.40;99.90;;;;;;5117791;27;20421;-79
2023/01/27 03:26:43;;;;;;;2.87;0.50;;;4.50;99.90;;;;;;5123865;27;20395;-78
2023/01/27 03:31:52;;;;;;;2.65;0.57;;;4.40;99.90;;;;;;5130494;27;20457;-79
2023/01/27 03:34:18;;;;;;;6.72;0.88;;;4.40;99.90;;;;;;5117024;27;20845;-79
2023/01/27 03:47:41;;;;;;;4.57;0.70;;;4.30;99.90;;;;;;5098958;28;20425;-78
2023/01/27 03:50:12;;;;;;;7.10;0.70;;;4.30;99.90;;;;;;5102779;27;20411;-78
2023/01/27 03:52:39;;;;;;;4.28;0.77;;;4.40;99.90;;;;;;5105685;27;20411;-78
2023/01/27 03:55:05;;;;;;;4.90;0.90;;;4.30;99.90;;;;;;5121896;27;20449;-78
2023/01/27 03:57:31;;;;;;;3.35;0.80;;;4.30;99.90;;;;;;5102380;27;20415;-78
2023/01/27 03:59:57;;;;;;;4.53;1.30;;;4.30;99.90;;;;;;5126126;27;20892;-78
2023/01/27 04:07:51;;;;;;;2.93;0.87;;;4.30;99.90;;;;;;5123191;27;20412;-78
2023/01/27 04:10:16;;;;;;;5.00;1.03;;;4.30;99.90;;;;;;5112459;27;20406;-78
2023/01/27 04:12:42;;;;;;;3.55;1.00;;;4.30;99.90;;;;;;5106013;27;20449;-78
2023/01/27 04:15:08;;;;;;;2.80;0.90;;;4.30;99.90;;;;;;5112104;27;20430;-78
2023/01/27 04:17:37;;;;;;;5.28;1.40;;;4.30;99.90;;;;;;5123611;27;20397;-78
2023/01/27 04:20:04;;;;;;;4.72;1.20;;;4.30;99.90;;;;;;5123599;27;20399;-79
2023/01/27 04:22:29;;;;;;;4.60;1.33;;;4.30;99.90;;;;;;5111761;27;20433;-79
2023/01/27 04:24:55;;;;;;;4.00;1.38;;;4.30;99.90;;;;;;5095015;27;20407;-78
2023/01/27 04:27:21;;;;;;;2.93;1.50;;;4.30;99.90;;;;;;5112012;27;20417;-79
2023/01/27 04:29:47;;;;;;;3.80;1.47;;;4.30;99.90;;;;;;5148982;27;21316;-79
2023/01/27 04:32:13;;;;;;;4.10;1.40;;;4.30;99.90;;;;;;5128939;27;20415;-78
2023/01/27 04:34:39;;;;;;;3.58;1.40;;;4.30;99.90;;;;;;5129386;27;20404;-78
2023/01/27 04:37:07;;;;;;;5.50;1.33;;;4.30;99.90;;;;;;5117162;27;20453;-78
2023/01/27 04:39:33;;;;;;;3.97;1.42;;;4.30;99.90;;;;;;5129201;27;20405;-79
2023/01/27 04:41:59;;;;;;;5.20;1.47;;;4.30;99.90;;;;;;5127395;27;20424;-79
2023/01/27 04:44:25;;;;;;;3.63;1.30;;;4.30;99.90;;;;;;5128589;27;20393;-78
2023/01/27 04:46:51;;;;;;;2.72;1.02;;;4.30;99.90;;;;;;5127383;27;20428;-78
2023/01/27 04:49:17;;;;;;;8.70;1.60;;;4.30;99.90;;;;;;5105223;27;20409;-78
2023/01/27 04:51:43;;;;;;;3.60;1.10;;;4.20;99.90;;;;;;5128382;27;20410;-78
2023/01/27 04:54:09;;;;;;;2.78;0.82;;;4.20;99.90;;;;;;5128758;27;20793;-78
2023/01/27 04:56:41;;;;;;;3.03;0.80;;;4.20;99.90;;;;;;5126809;27;20457;-78
2023/01/27 04:59:11;;;;;;;3.67;1.20;;;4.20;99.90;;;;;;5107640;27;20408;-78
2023/01/27 05:01:36;;;;;;;2.95;0.85;;;4.30;99.90;;;;;;5114446;27;20469;-78
2023/01/27 05:04:02;;;;;;;2.90;0.95;;;4.30;99.90;;;;;;5128952;27;20408;-78
2023/01/27 05:06:28;;;;;;;5.35;1.17;;;4.30;99.90;;;;;;5115353;27;20474;-78
2023/01/27 05:08:54;;;;;;;3.60;0.80;;;4.30;99.90;;;;;;5127322;27;20405;-78
2023/01/27 05:11:20;;;;;;;3.20;0.82;;;4.30;99.90;;;;;;5114002;27;20492;-78
2023/01/27 05:13:46;;;;;;;3.17;0.77;;;4.30;99.90;;;;;;5135908;27;20400;-78
2023/01/27 05:16:20;;;;;;;4.53;0.70;;;4.30;99.90;;;;;;5114038;27;20583;-78
2023/01/27 05:18:48;;;;;;;4.47;0.70;;;4.30;99.90;;;;;;5102956;27;20405;-78
2023/01/27 05:21:19;;;;;;;4.22;0.90;;;4.30;99.90;;;;;;5112189;27;20535;-78
2023/01/27 05:23:45;;;;;;;3.40;0.60;;;4.30;99.90;;;;;;5109207;27;20411;-79
2023/01/27 05:26:19;;;;;;;2.78;0.50;;;4.30;99.90;;;;;;5112094;27;20406;-78
2023/01/27 05:28:47;;;;;;;3.58;0.60;;;4.30;99.90;;;;;;5136592;27;20402;-78
2023/01/27 05:31:17;;;;;;;3.63;0.70;;;4.20;99.90;;;;;;5124493;27;20404;-78
2023/01/27 05:33:44;;;;;;;2.15;0.73;;;4.30;99.90;;;;;;5127577;27;20401;-78
2023/01/27 05:36:12;;;;;;;3.17;0.70;;;4.20;99.90;;;;;;5133397;27;20407;-78
2023/01/27 05:38:38;;;;;;;3.80;0.50;;;4.20;99.90;;;;;;5116305;27;21132;-78
2023/01/27 05:41:06;;;;;;;2.85;0.60;;;4.20;99.90;;;;;;5115767;27;20413;-78
2023/01/27 05:43:34;;;;;;;3.20;0.60;;;4.30;99.90;;;;;;5112879;27;20438;-79
2023/01/27 05:46:02;;;;;;;2.60;0.50;;;4.30;99.90;;;;;;5120088;27;20402;-78
2023/01/27 05:48:28;;;;;;;3.72;0.60;;;4.20;99.90;;;;;;5103037;27;20417;-78
2023/01/27 05:50:55;;;;;;;3.13;0.60;;;4.30;99.90;;;;;;5120741;27;20409;-79
2023/01/27 05:53:21;;;;;;;2.40;0.57;;;4.20;99.90;;;;;;5110539;28;20531;-79
2023/01/27 05:55:47;;;;;;;1.80;0.35;;;4.30;99.90;;;;;;5116332;27;20401;-78
2023/01/27 05:58:13;;;;;;;2.63;0.45;;;4.20;99.90;;;;;;5125437;27;20425;-78
2023/01/27 06:00:39;;;;;;;3.83;0.43;;;4.20;99.90;;;;;;5114065;27;20432;-78
2023/01/27 06:03:04;;;;;;;2.57;0.43;;;4.20;99.90;;;;;;5124725;27;20429;-79
2023/01/27 06:05:30;;;;;;;4.07;0.60;;;4.10;99.90;;;;;;5120086;28;20405;-79
2023/01/27 06:07:55;;;;;;;3.20;0.50;;;4.10;99.90;;;;;;5119703;27;20392;-79
2023/01/27 06:10:21;;;;;;;3.03;0.50;;;4.10;99.90;;;;;;5124375;27;20401;-78
2023/01/27 06:12:47;;;;;;;4.67;0.63;;;4.10;99.90;;;;;;5115223;28;20494;-78
2023/01/27 06:15:12;;;;;;;2.20;0.47;;;4.00;99.90;;;;;;5102086;28;20398;-79
2023/01/27 06:17:38;;;;;;;4.70;0.70;;;4.00;99.90;;;;;;5122080;27;20405;-79
2023/01/27 06:20:04;;;;;;;1.50;0.43;;;4.00;99.90;;;;;;5121629;28;20939;-78
2023/01/27 06:22:30;;;;;;;3.88;0.60;;;4.00;99.90;;;;;;5110320;27;20471;-78
2023/01/27 06:24:55;;;;;;;4.57;0.50;;;4.00;99.90;;;;;;5128204;27;20902;-79
2023/01/27 06:27:21;;;;;;;4.07;0.88;;;4.00;99.90;;;;;;5126078;27;20404;-79
2023/01/27 06:29:46;;;;;;;3.83;0.70;;;4.00;99.90;;;;;;5127006;27;20474;-78
2023/01/27 06:32:12;;;;;;;3.78;0.60;;;4.00;99.90;;;;;;5125557;27;20919;-79
2023/01/27 06:34:38;;;;;;;4.45;0.60;;;4.00;99.90;;;;;;5115454;27;20393;-78
2023/01/27 06:37:04;;;;;;;1.88;0.70;;;4.00;99.90;;;;;;5121660;27;20407;-79
2023/01/27 06:39:29;;;;;;;4.17;0.70;;;4.00;99.90;;;;;;5113097;27;20409;-78
2023/01/27 06:41:55;;;;;;;3.97;0.55;;;4.00;99.90;;;;;;5124291;27;20941;-78
2023/01/27 06:44:21;;;;;;;5.00;0.90;;;3.90;99.90;;;;;;5123459;27;20418;-79
2023/01/27 06:46:46;;;;;;;2.40;0.63;;;3.90;99.90;;;;;;5115238;28;20768;-78
2023/01/27 06:49:12;;;;;;;5.22;1.05;;;4.00;99.90;;;;;;5122695;27;20401;-78
2023/01/27 06:51:37;;;;;;;4.97;0.70;;;4.00;99.90;;;;;;5124499;27;20401;-78
2023/01/27 06:54:03;;;;;;;3.03;0.77;;;4.00;99.90;;;;;;5108897;27;20441;-78
2023/01/27 06:56:29;;;;;;;5.97;1.10;;;4.00;99.90;;;;;;5107255;27;20467;-78
2023/01/27 06:58:55;;;;;;;4.53;0.93;;;4.00;99.90;;;;;;5112284;27;20803;-79
2023/01/27 07:01:20;;;;;;;5.13;0.90;;;4.00;99.90;;;;;;5113392;27;20418;-78
2023/01/27 07:03:46;;;;;;;7.47;1.30;;;4.00;99.90;;;;;;5110547;27;20420;-78
2023/01/27 07:06:13;;;;;;;4.30;0.95;;;3.90;99.90;;;;;;5113285;27;20399;-78
2023/01/27 07:08:39;;;;;;;4.60;1.00;;;3.90;99.90;;;;;;5117772;27;20415;-78
2023/01/27 07:11:05;;;;;;;6.45;1.02;;;3.90;99.90;;;;;;5126994;27;20397;-78
2023/01/27 07:13:30;;;;;;;6.90;1.47;;;3.90;99.90;;;;;;5113199;27;20398;-78
2023/01/27 07:15:56;;;;;;;5.77;1.00;;;3.90;99.90;;;;;;5113165;27;20874;-78
2023/01/27 07:18:22;;;;;;;7.90;1.55;;;3.90;99.90;;;;;;5125351;27;20395;-78
2023/01/27 07:20:47;;;;;;;5.30;1.20;;;3.90;99.90;;;;;;5124403;27;20397;-78
2023/01/27 07:23:13;;;;;;;10.43;1.40;;;3.90;99.90;;;;;;5131180;27;20500;-78
2023/01/27 07:25:39;;;;;;;5.78;1.30;;;3.90;99.90;;;;;;5130666;27;20425;-78
2023/01/27 07:28:05;;;;;;;6.80;1.40;;;3.90;99.90;;;;;;5129162;27;20399;-78
2023/01/27 07:30:34;;;;;;;6.70;1.17;;;3.90;99.90;;;;;;5096314;27;20912;-78
2023/01/27 07:33:09;;;;;;;5.85;1.13;;;3.90;99.90;;;;;;5102339;27;20426;-78
2023/01/27 07:35:36;;;;;;;4.80;1.15;;;3.90;99.90;;;;;;5127914;27;20923;-78
2023/01/27 07:38:02;;;;;;;5.72;1.10;;;3.80;99.90;;;;;;5123503;27;20406;-78
2023/01/27 07:40:28;;;;;;;4.75;0.93;;;3.80;99.90;;;;;;5123470;27;20439;-78
2023/01/27 07:42:57;;;;;;;6.53;1.10;;;3.90;99.90;;;;;;5119838;27;20421;-78
2023/01/27 07:45:22;;;;;;;7.70;1.50;;;3.80;99.90;;;;;;5109474;27;21275;-78
2023/01/27 07:47:48;;;;;;;6.17;1.30;;;3.80;99.90;;;;;;5123149;27;20421;-78
2023/01/27 07:50:14;;;;;;;4.00;1.20;;;3.80;99.90;;;;;;5112258;27;20403;-78
2023/01/27 07:52:39;;;;;;;6.53;1.30;;;3.80;99.90;;;;;;5120147;27;20401;-78
2023/01/27 07:55:06;;;;;;;7.87;1.77;;;3.90;99.90;;;;;;5126070;27;20426;-78
2023/01/27 07:57:32;;;;;;;4.95;1.40;;;3.80;99.90;;;;;;5118544;27;20415;-78
2023/01/27 07:59:58;;;;;;;5.00;1.37;;;3.80;99.90;;;;;;5123742;27;20399;-78
2023/01/27 08:02:24;;;;;;;4.70;1.30;;;3.90;99.90;;;;;;5120342;27;20456;-78
2023/01/27 08:04:50;;;;;;;4.40;1.10;;;3.90;99.90;;;;;;5120325;27;20410;-78
2023/01/27 08:07:16;;;;;;;6.47;1.37;;;3.90;99.90;;;;;;5119826;27;20785;-78
2023/01/27 08:09:42;;;;;;;6.73;1.70;;;3.90;99.90;;;;;;5121065;27;20402;-78
2023/01/27 08:12:08;;;;;;;4.43;1.20;;;3.90;99.90;;;;;;5116443;27;21146;-78
2023/01/27 08:14:33;;;;;;;6.07;1.55;;;3.90;99.90;;;;;;5100406;27;20818;-78
2023/01/27 08:17:00;;;;;;;5.20;1.60;;;3.90;99.90;;;;;;5120284;27;20413;-78
2023/01/27 08:19:25;;;;;;;6.30;1.70;;;3.90;99.90;;;;;;5115748;27;20421;-78
2023/01/27 08:21:51;;;;;;;4.68;1.40;;;3.90;99.90;;;;;;5119743;27;20413;-78
2023/01/27 08:24:17;;;;;;;6.17;1.60;;;3.90;99.90;;;;;;5116024;27;20483;-79
2023/01/27 08:26:42;;;;;;;6.03;1.60;;;3.90;99.90;;;;;;5119986;27;20401;-78
2023/01/27 08:29:08;;;;;;;7.25;1.67;;;3.90;99.90;;;;;;5126734;27;20471;-78
2023/01/27 08:31:34;;;;;;;6.27;1.40;;;3.90;99.90;;;;;;5119894;27;20513;-78
2023/01/27 08:33:59;;;;;;;5.30;1.70;;;3.90;99.90;;;;;;5128278;27;20445;-78
2023/01/27 08:36:25;;;;;;;6.05;1.58;;;4.00;99.90;;;;;;5130841;27;20537;-78
2023/01/27 08:38:51;;;;;;;7.57;1.60;;;3.90;99.90;;;;;;5127140;27;20805;-79
2023/01/27 08:41:22;;;;;;;5.93;1.50;;;4.00;99.90;;;;;;5117284;27;20458;-78
2023/01/27 08:43:48;;;;;;;5.70;1.48;;;4.00;99.90;;;;;;5114421;27;20407;-78
2023/01/27 08:46:14;;;;;;;5.57;1.50;;;4.00;99.90;;;;;;5112049;27;20409;-79
2023/01/27 08:48:40;;;;;;;8.73;1.73;;;4.10;99.90;;;;;;5094736;27;20414;-78
2023/01/27 08:51:07;;;;;;;6.32;1.63;;;4.10;99.90;;;;;;5121690;27;20399;-78
2023/01/27 08:53:35;;;;;;;5.35;1.27;;;4.10;99.90;;;;;;5111620;27;20421;-79
2023/01/27 08:56:05;;;;;;;5.10;2.00;;;4.10;99.90;;;;;;5127655;27;20409;-78
2023/01/27 08:58:32;;;;;;;5.65;1.75;;;4.20;99.90;;;;;;5124526;27;20391;-78
2023/01/27 09:01:02;;;;;;;5.03;1.60;;;4.20;99.90;;;;;;5127942;27;20401;-78
2023/01/27 09:03:32;;;;;;;4.13;1.60;;;4.20;99.90;;;;;;5123535;27;20434;-78
2023/01/27 09:05:58;;;;;;;5.03;1.48;;;4.20;99.90;;;;;;5146108;27;20405;-78
2023/01/27 09:08:25;;;;;;;6.30;1.38;;;4.30;99.90;;;;;;5111752;27;20398;-78
2023/01/27 09:10:51;;;;;;;4.43;1.33;;;4.30;99.90;;;;;;5102309;27;20408;-78
2023/01/27 09:13:21;;;;;;;5.18;1.80;;;4.30;99.90;;;;;;5139389;27;20387;-78
2023/01/27 09:15:47;;;;;;;4.37;1.50;;;4.30;99.90;;;;;;5117610;27;20895;-78
2023/01/27 09:18:12;;;;;;;5.60;1.70;;;4.30;99.90;;;;;;5113811;27;20415;-78
2023/01/27 09:20:38;;;;;;;4.20;1.90;;;4.30;99.90;;;;;;5128181;27;20397;-78
2023/01/27 09:23:04;;;;;;;5.22;1.80;;;4.30;99.90;;;;;;5124017;27;21230;-79
2023/01/27 09:25:30;;;;;;;6.22;1.50;;;4.30;99.90;;;;;;5117736;27;20911;-79
2023/01/27 09:27:58;;;;;;;5.05;1.70;;;4.30;99.90;;;;;;5113490;27;20427;-78
2023/01/27 09:30:25;;;;;;;4.10;1.60;;;4.30;99.90;;;;;;5127927;27;20397;-78
2023/01/27 09:32:51;;;;;;;5.03;1.63;;;4.30;99.90;;;;;;5122347;27;20450;-78
2023/01/27 09:35:17;;;;;;;5.43;1.38;;;4.30;99.90;;;;;;5109054;27;20909;-78
2023/01/27 09:37:56;;;;;;;5.45;1.40;;;4.30;99.90;;;;;;5113096;27;20430;-78
2023/01/27 09:40:24;;;;;;;3.25;1.50;;;4.30;99.90;;;;;;5106547;27;20487;-78
2023/01/27 09:42:56;;;;;;;7.03;1.83;;;4.30;99.90;;;;;;5110573;27;20462;-78
2023/01/27 09:45:41;;;;;;;4.57;1.67;;;4.30;99.90;;;;;;5137420;27;20459;-78
2023/01/27 09:48:45;;;;;;;6.07;1.60;;;4.30;99.90;;;;;;5110434;27;20484;-78
2023/01/27 09:51:17;;;;;;;5.40;2.00;;;4.40;99.90;;;;;;5107206;27;20442;-78
2023/01/27 09:53:43;;;;;;;4.80;2.05;;;4.40;99.90;;;;;;5117976;27;20416;-78
2023/01/27 09:56:56;;;;;;;4.77;2.00;;;4.40;99.90;;;;;;5110670;27;20481;-78
2023/01/27 09:59:36;;;;;;;5.80;2.00;;;4.40;99.90;;;;;;5099565;27;20497;-78
2023/01/27 10:02:35;;;;;;;3.53;1.83;;;4.40;99.90;;;;;;5134742;27;20439;-78
2023/01/27 10:05:07;;;;;;;3.90;1.98;;;4.40;99.90;;;;;;5105213;28;20423;-78
2023/01/27 10:07:41;;;;;;;5.55;2.10;;;4.40;99.90;;;;;;5086372;28;20411;-78
2023/01/27 10:10:16;;;;;;;3.08;1.80;;;4.40;99.90;;;;;;5111238;27;20924;-78
2023/01/27 10:12:49;;;;;;;4.43;1.90;;;4.40;99.90;;;;;;5119865;27;20906;-78
2023/01/27 10:16:02;;;;;;;3.83;1.70;;;4.40;99.90;;;;;;5116663;28;20406;-78
2023/01/27 10:18:36;;;;;;;3.05;1.90;;;4.40;99.90;;;;;;5086668;27;20413;-78
2023/01/27 10:21:20;;;;;;;2.85;1.80;;;4.30;99.90;;;;;;5097172;27;20459;-78
2023/01/27 10:24:01;;;;;;;3.53;1.80;;;4.30;99.90;;;;;;5118087;28;20734;-78
2023/01/27 10:26:38;;;;;;;3.97;2.25;;;4.30;99.90;;;;;;5125269;27;20921;-78
2023/01/27 10:29:31;;;;;;;3.40;2.20;;;4.30;99.90;;;;;;5125165;27;20405;-78
2023/01/27 10:32:09;;;;;;;4.90;2.22;;;4.30;99.90;;;;;;5131821;27;20747;-78
2023/01/27 10:35:12;;;;;;;3.33;2.42;;;4.30;99.90;;;;;;5123837;27;20429;-78
2023/01/27 10:38:22;;;;;;;3.42;2.20;;;4.30;99.90;;;;;;5128633;27;20409;-78
2023/01/27 10:41:16;;;;;;;2.60;2.30;;;4.30;99.90;;;;;;5035627;28;20420;-79
2023/01/27 10:44:07;;;;;;;4.57;2.90;;;4.30;99.90;;;;;;5118557;27;20437;-78
2023/01/27 10:46:59;;;;;;;3.67;2.80;;;4.20;99.90;;;;;;5120810;27;20470;-79
2023/01/27 10:49:48;;;;;;;4.07;2.80;;;4.20;99.90;;;;;;5082734;27;20518;-78
2023/01/27 10:52:37;;;;;;;3.43;2.70;;;4.20;99.90;;;;;;5129284;27;20413;-78
2023/01/27 10:55:15;;;;;;;3.80;2.40;;;4.20;99.90;;;;;;5124513;27;20426;-78
2023/01/27 10:58:04;;;;;;;4.15;2.45;;;4.20;99.90;;;;;;5121795;27;20492;-78
2023/01/27 11:00:37;;;;;;;4.10;2.50;;;4.20;99.90;;;;;;5115209;27;20985;-78
2023/01/27 11:03:29;;;;;;;3.63;2.50;;;4.20;99.90;;;;;;5127853;27;20428;-78
2023/01/27 11:06:09;;;;;;;4.18;2.70;;;4.20;99.90;;;;;;5122662;27;20776;-78
2023/01/27 11:08:39;;;;;;;3.17;2.87;;;4.20;99.90;;;;;;5113750;27;20401;-78
2023/01/27 11:14:01;;;;;;;3.75;2.90;;;4.20;99.90;;;;;;5111542;27;20841;-78
2023/01/27 11:16:34;;;;;;;3.40;2.72;;;4.20;99.90;;;;;;5132040;27;20443;-78
2023/01/27 11:19:09;;;;;;;3.50;2.75;;;4.20;99.90;;;;;;5096101;27;20946;-78
2023/01/27 11:21:36;;;;;;;2.60;2.40;;;4.20;99.90;;;;;;5128972;27;20404;-78
2023/01/27 11:24:16;;;;;;;3.35;2.30;;;4.20;99.90;;;;;;5119046;27;20504;-79
2023/01/27 11:26:47;;;;;;;2.50;2.03;;;4.20;99.90;;;;;;5110435;27;20416;-78
2023/01/27 11:29:34;;;;;;;3.17;2.40;;;4.20;99.90;;;;;;5116333;27;20410;-78
2023/01/27 11:32:24;;;;;;;2.93;2.30;;;4.20;99.90;;;;;;5124634;27;20431;-78
2023/01/27 11:35:14;;;;;;;3.17;2.28;;;4.30;99.90;;;;;;5110743;27;20420;-78
2023/01/27 11:37:42;;;;;;;3.00;2.40;;;4.30;99.90;;;;;;5111628;27;20408;-78
2023/01/27 11:40:31;;;;;;;3.20;1.92;;;4.30;99.90;;;;;;5113608;27;20401;-78
2023/01/27 11:42:58;;;;;;;2.15;1.80;;;4.30;99.90;;;;;;5101431;27;20454;-78
2023/01/27 11:45:26;;;;;;;2.63;2.00;;;4.20;99.90;;;;;;5108093;27;20436;-78
2023/01/27 11:47:57;;;;;;;3.35;1.88;;;4.20;99.90;;;;;;5130370;27;20405;-77
2023/01/27 11:50:28;;;;;;;2.83;2.22;;;4.20;99.90;;;;;;5114513;27;20457;-77
2023/01/27 11:53:15;;;;;;;2.58;1.80;;;4.20;99.90;;;;;;5104164;27;20747;-77
2023/01/27 11:55:46;;;;;;;2.08;1.70;;;4.30;99.90;;;;;;5121552;27;20406;-77
2023/01/27 11:58:21;;;;;;;2.28;1.60;;;4.20;99.90;;;;;;5112351;27;20459;-77
2023/01/27 12:00:55;;;;;;;2.30;1.90;;;4.20;99.90;;;;;;5119960;27;20469;-77
2023/01/27 12:03:48;;;;;;;2.70;1.90;;;4.30;99.90;;;;;;5145013;27;21114;-77
2023/01/27 12:06:20;;;;;;;2.55;1.90;;;4.30;99.90;;;;;;5127589;27;20417;-77
2023/01/27 12:08:48;;;;;;;2.33;1.90;;;4.30;99.90;;;;;;5099984;27;20437;-77
2023/01/27 12:11:21;;;;;;;1.90;1.65;;;4.30;99.90;;;;;;5116293;27;20496;-77
2023/01/27 12:13:54;;;;;;;2.65;1.35;;;4.30;99.90;;;;;;5119062;27;20413;-78
2023/01/27 12:16:24;;;;;;;1.60;1.40;;;4.30;99.90;;;;;;5115523;27;20495;-77
2023/01/27 12:18:58;;;;;;;2.57;1.70;;;4.40;99.90;;;;;;5130957;27;20397;-77
2023/01/27 12:21:46;;;;;;;2.37;1.50;;;4.40;99.90;;;;;;5127488;27;20496;-77
2023/01/27 12:24:29;;;;;;;2.70;1.60;;;4.40;99.90;;;;;;5128196;27;20424;-77
2023/01/27 12:26:56;;;;;;;2.00;1.30;;;4.50;99.90;;;;;;5103553;27;20900;-80
2023/01/27 12:29:35;;;;;;;2.05;1.00;;;4.50;99.90;;;;;;5096333;27;20402;-77
2023/01/27 12:32:01;;;;;;;1.23;0.83;;;4.40;99.90;;;;;;5108886;27;20420;-77
2023/01/27 12:34:36;;;;;;;1.40;0.90;;;4.40;99.90;;;;;;5142021;27;20389;-77
2023/01/27 12:37:05;;;;;;;1.10;0.60;;;4.50;99.90;;;;;;5145194;27;20416;-76
2023/01/27 12:39:37;;;;;;;0.80;0.50;;;4.50;99.90;;;;;;5119434;27;20403;-77
2023/01/27 12:42:03;;;;;;;0.80;0.40;;;4.50;99.90;;;;;;5111424;27;20429;-77
2023/01/27 12:44:41;;;;;;;2.15;0.70;;;4.50;99.90;;;;;;5117153;27;20401;-77
2023/01/27 12:47:26;;;;;;;1.40;0.40;;;4.50;99.90;;;;;;5132361;27;20395;-77
2023/01/27 12:50:22;;;;;;;2.53;0.85;;;4.60;99.90;;;;;;5129453;27;20951;-77
2023/01/27 12:53:02;;;;;;;2.20;0.90;;;4.60;99.90;;;;;;5127442;27;20507;-77
2023/01/27 12:55:32;;;;;;;1.30;0.80;;;4.60;99.90;;;;;;5112922;27;20429;-77
2023/01/27 12:57:58;;;;;;;1.92;0.90;;;4.60;99.90;;;;;;5117895;27;20402;-77
2023/01/27 13:00:25;;;;;;;1.73;1.10;;;4.60;99.90;;;;;;5113406;27;20406;-77
2023/01/27 13:02:53;;;;;;;2.00;1.10;;;4.60;99.90;;;;;;5125139;27;20518;-77
2023/01/27 13:05:19;;;;;;;2.80;1.20;;;4.60;99.90;;;;;;5118159;27;20407;-77
2023/01/27 13:07:47;;;;;;;2.50;1.02;;;4.60;99.90;;;;;;5125266;27;20428;-80
2023/01/27 13:10:22;;;;;;;2.17;1.00;;;4.60;99.90;;;;;;5096484;27;20438;-77
2023/01/27 13:13:02;;;;;;;1.80;0.90;;;4.60;99.90;;;;;;5123425;27;20416;-77
2023/01/27 13:15:30;;;;;;;1.10;0.77;;;4.70;99.90;;;;;;5111270;27;20414;-77
2023/01/27 13:18:10;;;;;;;1.88;0.98;;;4.70;99.90;;;;;;5112578;27;20406;-77
2023/01/27 13:20:47;;;;;;;1.38;0.82;;;4.60;99.90;;;;;;5147816;27;20401;-77
2023/01/27 13:23:21;;;;;;;0.90;0.50;;;4.60;99.90;;;;;;5115133;27;20440;-77
2023/01/27 13:26:04;;;;;;;0.80;0.40;;;4.60;99.90;;;;;;5128152;27;20409;-77
2023/01/27 13:28:52;;;;;;;1.00;0.40;;;4.60;99.90;;;;;;5109959;27;20416;-77
2023/01/27 13:31:36;;;;;;;1.50;0.60;;;4.60;99.90;;;;;;5109402;27;20406;-77
2023/01/27 13:34:16;;;;;;;1.77;0.50;;;4.60;99.90;;;;;;5122693;27;20447;-77
2023/01/27 13:36:55;;;;;;;1.30;0.60;;;4.60;99.90;;;;;;5111886;27;20405;-77
2023/01/27 13:40:03;;;;;;;1.30;0.70;;;4.60;99.90;;;;;;5124586;27;20444;-77
2023/01/27 13:42:43;;;;;;;0.80;0.40;;;4.60;99.90;;;;;;5027812;28;20490;-77
2023/01/27 13:45:20;;;;;;;1.20;0.50;;;4.60;99.90;;;;;;5094429;27;20413;-77
2023/01/27 13:48:00;;;;;;;0.80;0.55;;;4.50;99.90;;;;;;5125482;27;20507;-77
2023/01/27 13:50:38;;;;;;;1.98;0.70;;;4.60;99.90;;;;;;5092587;27;20420;-77
2023/01/27 13:53:08;;;;;;;1.00;0.70;;;4.50;99.90;;;;;;5110559;27;20746;-77